sensor_id;sensor_type;location;lat;lon;timestamp;P1;durP1;ratioP1;P2;durP2;ratioP2
71038;SDS011;58692;43.212;27.908;2023-04-15T00:01:26;10.52;;;3.78;;
71038;SDS011;58692;43.212;27.908;2023-04-15T00:03:53;10.60;;;4.18;;
71038;SDS011;58692;43.212;27.908;2023-04-15T00:06:19;10.73;;;4.17;;
71038;SDS011;58692;43.212;27.908;2023-04-15T00:08:46;10.50;;;4.15;;
71038;SDS011;58692;43.212;27.908;2023-04-15T00:11:12;12.55;;;4.10;;
71038;SDS011;58692;43.212;27.908;2023-04-15T00:13:38;11.40;;;4.20;;
71038;SDS011;58692;43.212;27.908;2023-04-15T00:16:04;10.50;;;4.30;;
71038;SDS011;58692;43.212;27.908;2023-04-15T00:18:31;15.10;;;3.92;;
71038;SDS011;58692;43.212;27.908;2023-04-15T00:20:57;12.40;;;4.40;;
71038;SDS011;58692;43.212;27.908;2023-04-15T00:23:23;11.52;;;3.55;;
71038;SDS011;58692;43.212;27.908;2023-04-15T00:25:49;21.73;;;6.85;;
71038;SDS011;58692;43.212;27.908;2023-04-15T00:28:15;11.47;;;4.77;;
71038;SDS011;58692;43.212;27.908;2023-04-15T00:30:41;9.65;;;3.97;;
71038;SDS011;58692;43.212;27.908;2023-04-15T00:33:06;11.90;;;4.65;;
71038;SDS011;58692;43.212;27.908;2023-04-15T00:35:32;9.83;;;4.23;;
71038;SDS011;58692;43.212;27.908;2023-04-15T00:37:58;13.55;;;4.80;;
71038;SDS011;58692;43.212;27.908;2023-04-15T00:40:24;13.20;;;4.60;;
71038;SDS011;58692;43.212;27.908;2023-04-15T00:42:50;12.68;;;4.60;;
71038;SDS011;58692;43.212;27.908;2023-04-15T00:45:16;12.60;;;5.10;;
71038;SDS011;58692;43.212;27.908;2023-04-15T00:47:42;11.93;;;4.53;;
71038;SDS011;58692;43.212;27.908;2023-04-15T00:50:08;10.80;;;4.30;;
71038;SDS011;58692;43.212;27.908;2023-04-15T00:52:34;12.02;;;4.70;;
71038;SDS011;58692;43.212;27.908;2023-04-15T00:55:00;9.97;;;4.13;;
71038;SDS011;58692;43.212;27.908;2023-04-15T00:57:26;12.98;;;4.22;;
71038;SDS011;58692;43.212;27.908;2023-04-15T00:59:53;14.00;;;4.53;;
71038;SDS011;58692;43.212;27.908;2023-04-15T01:02:20;11.80;;;4.63;;
71038;SDS011;58692;43.212;27.908;2023-04-15T01:04:46;11.83;;;4.10;;
71038;SDS011;58692;43.212;27.908;2023-04-15T01:07:12;10.80;;;3.92;;
71038;SDS011;58692;43.212;27.908;2023-04-15T01:09:37;10.83;;;4.30;;
71038;SDS011;58692;43.212;27.908;2023-04-15T01:12:03;11.80;;;4.50;;
71038;SDS011;58692;43.212;27.908;2023-04-15T01:14:29;8.73;;;4.13;;
71038;SDS011;58692;43.212;27.908;2023-04-15T01:16:55;9.37;;;4.13;;
71038;SDS011;58692;43.212;27.908;2023-04-15T01:19:21;12.45;;;5.00;;
71038;SDS011;58692;43.212;27.908;2023-04-15T01:21:47;11.33;;;4.77;;
71038;SDS011;58692;43.212;27.908;2023-04-15T01:24:12;10.40;;;4.45;;
71038;SDS011;58692;43.212;27.908;2023-04-15T01:26:40;11.50;;;5.00;;
71038;SDS011;58692;43.212;27.908;2023-04-15T01:29:06;14.17;;;4.73;;
71038;SDS011;58692;43.212;27.908;2023-04-15T01:31:32;11.65;;;4.60;;
71038;SDS011;58692;43.212;27.908;2023-04-15T01:33:58;12.40;;;4.93;;
71038;SDS011;58692;43.212;27.908;2023-04-15T01:36:24;12.40;;;4.27;;
71038;SDS011;58692;43.212;27.908;2023-04-15T01:38:49;11.57;;;4.50;;
71038;SDS011;58692;43.212;27.908;2023-04-15T01:41:15;14.05;;;4.63;;
71038;SDS011;58692;43.212;27.908;2023-04-15T01:43:41;18.25;;;4.88;;
71038;SDS011;58692;43.212;27.908;2023-04-15T01:46:06;13.40;;;4.43;;
71038;SDS011;58692;43.212;27.908;2023-04-15T01:48:32;12.48;;;5.00;;
71038;SDS011;58692;43.212;27.908;2023-04-15T01:50:58;12.33;;;5.27;;
71038;SDS011;58692;43.212;27.908;2023-04-15T01:53:24;12.10;;;4.35;;
71038;SDS011;58692;43.212;27.908;2023-04-15T01:55:50;10.38;;;4.47;;
71038;SDS011;58692;43.212;27.908;2023-04-15T01:58:16;9.93;;;4.60;;
71038;SDS011;58692;43.212;27.908;2023-04-15T02:00:43;10.85;;;4.38;;
71038;SDS011;58692;43.212;27.908;2023-04-15T02:03:09;12.40;;;4.95;;
71038;SDS011;58692;43.212;27.908;2023-04-15T02:05:35;13.80;;;4.82;;
71038;SDS011;58692;43.212;27.908;2023-04-15T02:08:00;15.57;;;4.90;;
71038;SDS011;58692;43.212;27.908;2023-04-15T02:10:26;16.23;;;5.17;;
71038;SDS011;58692;43.212;27.908;2023-04-15T02:12:52;9.45;;;4.75;;
71038;SDS011;58692;43.212;27.908;2023-04-15T02:15:18;9.45;;;4.05;;
71038;SDS011;58692;43.212;27.908;2023-04-15T02:17:44;10.63;;;4.40;;
71038;SDS011;58692;43.212;27.908;2023-04-15T02:20:14;12.52;;;4.70;;
71038;SDS011;58692;43.212;27.908;2023-04-15T02:22:41;12.60;;;4.63;;
71038;SDS011;58692;43.212;27.908;2023-04-15T02:25:07;13.43;;;4.60;;
71038;SDS011;58692;43.212;27.908;2023-04-15T02:27:34;16.50;;;4.68;;
71038;SDS011;58692;43.212;27.908;2023-04-15T02:30:00;20.15;;;5.95;;
71038;SDS011;58692;43.212;27.908;2023-04-15T02:32:26;14.70;;;5.85;;
71038;SDS011;58692;43.212;27.908;2023-04-15T02:34:51;15.77;;;5.53;;
71038;SDS011;58692;43.212;27.908;2023-04-15T02:37:17;18.00;;;6.60;;
71038;SDS011;58692;43.212;27.908;2023-04-15T02:39:44;19.20;;;6.03;;
71038;SDS011;58692;43.212;27.908;2023-04-15T02:42:10;19.25;;;7.07;;
71038;SDS011;58692;43.212;27.908;2023-04-15T02:44:35;17.30;;;6.50;;
71038;SDS011;58692;43.212;27.908;2023-04-15T02:47:01;18.45;;;7.40;;
71038;SDS011;58692;43.212;27.908;2023-04-15T02:49:28;17.20;;;6.60;;
71038;SDS011;58692;43.212;27.908;2023-04-15T02:51:55;17.27;;;7.13;;
71038;SDS011;58692;43.212;27.908;2023-04-15T02:54:22;24.77;;;6.97;;
71038;SDS011;58692;43.212;27.908;2023-04-15T02:56:48;16.47;;;6.50;;
71038;SDS011;58692;43.212;27.908;2023-04-15T02:59:14;14.88;;;6.28;;
71038;SDS011;58692;43.212;27.908;2023-04-15T03:01:40;15.23;;;5.28;;
71038;SDS011;58692;43.212;27.908;2023-04-15T03:04:06;13.80;;;4.97;;
71038;SDS011;58692;43.212;27.908;2023-04-15T03:06:33;13.27;;;4.70;;
71038;SDS011;58692;43.212;27.908;2023-04-15T03:08:59;15.05;;;5.07;;
71038;SDS011;58692;43.212;27.908;2023-04-15T03:11:24;12.77;;;4.72;;
71038;SDS011;58692;43.212;27.908;2023-04-15T03:13:51;17.53;;;4.93;;
71038;SDS011;58692;43.212;27.908;2023-04-15T03:16:17;13.80;;;4.18;;
71038;SDS011;58692;43.212;27.908;2023-04-15T03:18:42;13.27;;;4.00;;
71038;SDS011;58692;43.212;27.908;2023-04-15T03:21:08;13.90;;;4.73;;
71038;SDS011;58692;43.212;27.908;2023-04-15T03:23:33;11.02;;;3.88;;
71038;SDS011;58692;43.212;27.908;2023-04-15T03:26:02;13.87;;;4.17;;
71038;SDS011;58692;43.212;27.908;2023-04-15T03:28:28;12.00;;;4.43;;
71038;SDS011;58692;43.212;27.908;2023-04-15T03:30:54;12.23;;;5.13;;
71038;SDS011;58692;43.212;27.908;2023-04-15T03:33:20;15.80;;;4.50;;
71038;SDS011;58692;43.212;27.908;2023-04-15T03:35:45;19.10;;;4.83;;
71038;SDS011;58692;43.212;27.908;2023-04-15T03:38:11;26.77;;;5.35;;
71038;SDS011;58692;43.212;27.908;2023-04-15T03:40:37;32.43;;;5.70;;
71038;SDS011;58692;43.212;27.908;2023-04-15T03:43:05;17.00;;;5.00;;
71038;SDS011;58692;43.212;27.908;2023-04-15T03:45:31;20.43;;;4.53;;
71038;SDS011;58692;43.212;27.908;2023-04-15T03:47:57;12.57;;;4.07;;
71038;SDS011;58692;43.212;27.908;2023-04-15T03:50:22;9.27;;;3.23;;
71038;SDS011;58692;43.212;27.908;2023-04-15T03:52:47;10.48;;;3.60;;
71038;SDS011;58692;43.212;27.908;2023-04-15T03:55:13;13.43;;;4.00;;
71038;SDS011;58692;43.212;27.908;2023-04-15T03:57:39;9.45;;;3.72;;
71038;SDS011;58692;43.212;27.908;2023-04-15T04:00:05;10.07;;;3.30;;
71038;SDS011;58692;43.212;27.908;2023-04-15T04:02:33;9.00;;;3.10;;
71038;SDS011;58692;43.212;27.908;2023-04-15T04:04:58;10.15;;;3.35;;
71038;SDS011;58692;43.212;27.908;2023-04-15T04:07:24;11.80;;;4.00;;
71038;SDS011;58692;43.212;27.908;2023-04-15T04:09:50;9.73;;;3.92;;
71038;SDS011;58692;43.212;27.908;2023-04-15T04:12:16;10.63;;;4.20;;
71038;SDS011;58692;43.212;27.908;2023-04-15T04:14:41;12.80;;;3.90;;
71038;SDS011;58692;43.212;27.908;2023-04-15T04:17:06;10.53;;;4.00;;
71038;SDS011;58692;43.212;27.908;2023-04-15T04:19:32;13.23;;;3.90;;
71038;SDS011;58692;43.212;27.908;2023-04-15T04:21:58;10.95;;;5.57;;
71038;SDS011;58692;43.212;27.908;2023-04-15T04:24:23;15.10;;;4.63;;
71038;SDS011;58692;43.212;27.908;2023-04-15T04:26:49;14.50;;;4.18;;
71038;SDS011;58692;43.212;27.908;2023-04-15T04:29:15;12.83;;;4.10;;
71038;SDS011;58692;43.212;27.908;2023-04-15T04:31:40;11.20;;;4.45;;
71038;SDS011;58692;43.212;27.908;2023-04-15T04:34:06;10.33;;;3.77;;
71038;SDS011;58692;43.212;27.908;2023-04-15T04:36:31;15.27;;;3.50;;
71038;SDS011;58692;43.212;27.908;2023-04-15T04:38:57;12.02;;;4.60;;
71038;SDS011;58692;43.212;27.908;2023-04-15T04:41:22;14.57;;;6.17;;
71038;SDS011;58692;43.212;27.908;2023-04-15T04:43:48;10.80;;;3.80;;
71038;SDS011;58692;43.212;27.908;2023-04-15T04:46:13;14.18;;;4.05;;
71038;SDS011;58692;43.212;27.908;2023-04-15T04:48:39;13.70;;;3.80;;
71038;SDS011;58692;43.212;27.908;2023-04-15T04:51:05;12.65;;;4.07;;
71038;SDS011;58692;43.212;27.908;2023-04-15T04:53:31;10.60;;;4.10;;
71038;SDS011;58692;43.212;27.908;2023-04-15T04:55:57;10.60;;;3.90;;
71038;SDS011;58692;43.212;27.908;2023-04-15T04:58:23;11.27;;;4.70;;
71038;SDS011;58692;43.212;27.908;2023-04-15T05:00:48;15.52;;;4.40;;
71038;SDS011;58692;43.212;27.908;2023-04-15T05:03:14;12.93;;;4.37;;
71038;SDS011;58692;43.212;27.908;2023-04-15T05:05:39;16.80;;;4.23;;
71038;SDS011;58692;43.212;27.908;2023-04-15T05:08:05;10.63;;;3.95;;
71038;SDS011;58692;43.212;27.908;2023-04-15T05:10:31;10.75;;;3.95;;
71038;SDS011;58692;43.212;27.908;2023-04-15T05:12:57;11.60;;;4.40;;
71038;SDS011;58692;43.212;27.908;2023-04-15T05:15:22;11.23;;;3.95;;
71038;SDS011;58692;43.212;27.908;2023-04-15T05:17:48;15.00;;;4.63;;
71038;SDS011;58692;43.212;27.908;2023-04-15T05:20:14;11.77;;;4.63;;
71038;SDS011;58692;43.212;27.908;2023-04-15T05:22:39;12.90;;;4.53;;
71038;SDS011;58692;43.212;27.908;2023-04-15T05:25:05;14.27;;;5.70;;
71038;SDS011;58692;43.212;27.908;2023-04-15T05:27:31;13.57;;;4.53;;
71038;SDS011;58692;43.212;27.908;2023-04-15T05:29:56;11.73;;;4.70;;
71038;SDS011;58692;43.212;27.908;2023-04-15T05:32:22;13.83;;;4.50;;
71038;SDS011;58692;43.212;27.908;2023-04-15T05:34:47;12.27;;;4.80;;
71038;SDS011;58692;43.212;27.908;2023-04-15T05:37:13;11.70;;;4.43;;
71038;SDS011;58692;43.212;27.908;2023-04-15T05:39:38;14.63;;;4.07;;
71038;SDS011;58692;43.212;27.908;2023-04-15T05:42:04;9.83;;;4.00;;
71038;SDS011;58692;43.212;27.908;2023-04-15T05:44:30;15.00;;;5.20;;
71038;SDS011;58692;43.212;27.908;2023-04-15T05:46:56;16.48;;;5.30;;
71038;SDS011;58692;43.212;27.908;2023-04-15T05:49:22;14.43;;;4.40;;
71038;SDS011;58692;43.212;27.908;2023-04-15T05:51:47;16.23;;;5.33;;
71038;SDS011;58692;43.212;27.908;2023-04-15T05:54:13;18.83;;;5.30;;
71038;SDS011;58692;43.212;27.908;2023-04-15T05:56:38;13.07;;;5.00;;
71038;SDS011;58692;43.212;27.908;2023-04-15T05:59:04;18.90;;;5.23;;
71038;SDS011;58692;43.212;27.908;2023-04-15T06:01:30;15.10;;;5.10;;
71038;SDS011;58692;43.212;27.908;2023-04-15T06:03:57;19.15;;;5.35;;
71038;SDS011;58692;43.212;27.908;2023-04-15T06:06:23;22.33;;;6.13;;
71038;SDS011;58692;43.212;27.908;2023-04-15T06:08:49;16.63;;;6.53;;
71038;SDS011;58692;43.212;27.908;2023-04-15T06:11:14;21.88;;;8.18;;
71038;SDS011;58692;43.212;27.908;2023-04-15T06:13:40;23.43;;;10.27;;
71038;SDS011;58692;43.212;27.908;2023-04-15T06:16:05;28.57;;;14.33;;
71038;SDS011;58692;43.212;27.908;2023-04-15T06:18:32;31.05;;;14.18;;
71038;SDS011;58692;43.212;27.908;2023-04-15T06:20:57;31.27;;;17.20;;
71038;SDS011;58692;43.212;27.908;2023-04-15T06:23:23;31.45;;;17.92;;
71038;SDS011;58692;43.212;27.908;2023-04-15T06:25:48;36.27;;;18.67;;
71038;SDS011;58692;43.212;27.908;2023-04-15T06:28:14;33.50;;;18.05;;
71038;SDS011;58692;43.212;27.908;2023-04-15T06:30:40;39.57;;;19.30;;
71038;SDS011;58692;43.212;27.908;2023-04-15T06:33:05;38.45;;;19.08;;
71038;SDS011;58692;43.212;27.908;2023-04-15T06:35:31;33.63;;;18.23;;
71038;SDS011;58692;43.212;27.908;2023-04-15T06:37:57;36.88;;;18.67;;
71038;SDS011;58692;43.212;27.908;2023-04-15T06:40:22;34.77;;;17.20;;
71038;SDS011;58692;43.212;27.908;2023-04-15T06:42:47;27.77;;;13.90;;
71038;SDS011;58692;43.212;27.908;2023-04-15T06:45:13;25.17;;;13.10;;
71038;SDS011;58692;43.212;27.908;2023-04-15T06:47:38;28.63;;;12.97;;
71038;SDS011;58692;43.212;27.908;2023-04-15T06:50:04;22.48;;;12.25;;
71038;SDS011;58692;43.212;27.908;2023-04-15T06:52:30;23.03;;;11.87;;
71038;SDS011;58692;43.212;27.908;2023-04-15T06:54:56;21.95;;;11.25;;
71038;SDS011;58692;43.212;27.908;2023-04-15T06:57:23;19.23;;;10.50;;
71038;SDS011;58692;43.212;27.908;2023-04-15T06:59:48;20.23;;;11.00;;
71038;SDS011;58692;43.212;27.908;2023-04-15T07:02:14;22.23;;;10.13;;
71038;SDS011;58692;43.212;27.908;2023-04-15T07:04:39;20.13;;;9.13;;
71038;SDS011;58692;43.212;27.908;2023-04-15T07:07:05;18.73;;;9.88;;
71038;SDS011;58692;43.212;27.908;2023-04-15T07:09:32;18.87;;;9.20;;
71038;SDS011;58692;43.212;27.908;2023-04-15T07:11:58;18.42;;;8.95;;
71038;SDS011;58692;43.212;27.908;2023-04-15T07:14:23;15.05;;;7.30;;
71038;SDS011;58692;43.212;27.908;2023-04-15T07:16:49;14.60;;;7.40;;
71038;SDS011;58692;43.212;27.908;2023-04-15T07:19:15;13.00;;;6.70;;
71038;SDS011;58692;43.212;27.908;2023-04-15T07:21:40;14.23;;;6.63;;
71038;SDS011;58692;43.212;27.908;2023-04-15T07:24:06;14.80;;;7.37;;
71038;SDS011;58692;43.212;27.908;2023-04-15T07:26:31;15.55;;;6.82;;
71038;SDS011;58692;43.212;27.908;2023-04-15T07:28:57;18.10;;;8.47;;
71038;SDS011;58692;43.212;27.908;2023-04-15T07:31:22;17.30;;;7.80;;
71038;SDS011;58692;43.212;27.908;2023-04-15T07:33:48;14.47;;;7.20;;
71038;SDS011;58692;43.212;27.908;2023-04-15T07:36:13;13.80;;;6.47;;
71038;SDS011;58692;43.212;27.908;2023-04-15T07:38:39;12.73;;;5.83;;
71038;SDS011;58692;43.212;27.908;2023-04-15T07:41:05;16.08;;;6.70;;
71038;SDS011;58692;43.212;27.908;2023-04-15T07:43:30;12.57;;;6.10;;
71038;SDS011;58692;43.212;27.908;2023-04-15T07:45:55;14.30;;;5.97;;
71038;SDS011;58692;43.212;27.908;2023-04-15T07:48:21;13.07;;;5.97;;
71038;SDS011;58692;43.212;27.908;2023-04-15T07:50:47;12.50;;;5.97;;
71038;SDS011;58692;43.212;27.908;2023-04-15T07:53:12;13.83;;;5.60;;
71038;SDS011;58692;43.212;27.908;2023-04-15T07:55:38;15.00;;;7.90;;
71038;SDS011;58692;43.212;27.908;2023-04-15T07:58:04;13.68;;;6.00;;
71038;SDS011;58692;43.212;27.908;2023-04-15T08:00:29;14.33;;;5.90;;
71038;SDS011;58692;43.212;27.908;2023-04-15T08:02:56;13.00;;;5.10;;
71038;SDS011;58692;43.212;27.908;2023-04-15T08:05:23;13.05;;;4.35;;
71038;SDS011;58692;43.212;27.908;2023-04-15T08:07:48;12.07;;;5.83;;
71038;SDS011;58692;43.212;27.908;2023-04-15T08:10:14;17.52;;;5.63;;
71038;SDS011;58692;43.212;27.908;2023-04-15T08:12:40;10.90;;;4.73;;
71038;SDS011;58692;43.212;27.908;2023-04-15T08:15:06;11.68;;;4.30;;
71038;SDS011;58692;43.212;27.908;2023-04-15T08:17:32;13.43;;;4.68;;
71038;SDS011;58692;43.212;27.908;2023-04-15T08:19:58;9.97;;;4.47;;
71038;SDS011;58692;43.212;27.908;2023-04-15T08:22:23;13.23;;;4.93;;
71038;SDS011;58692;43.212;27.908;2023-04-15T08:24:49;9.93;;;4.53;;
71038;SDS011;58692;43.212;27.908;2023-04-15T08:27:15;11.45;;;4.78;;
71038;SDS011;58692;43.212;27.908;2023-04-15T08:29:41;13.48;;;4.47;;
71038;SDS011;58692;43.212;27.908;2023-04-15T08:32:07;9.13;;;4.20;;
71038;SDS011;58692;43.212;27.908;2023-04-15T08:34:33;9.73;;;4.28;;
71038;SDS011;58692;43.212;27.908;2023-04-15T08:36:59;9.85;;;4.40;;
71038;SDS011;58692;43.212;27.908;2023-04-15T08:39:25;11.30;;;4.00;;
71038;SDS011;58692;43.212;27.908;2023-04-15T08:41:55;15.10;;;4.28;;
71038;SDS011;58692;43.212;27.908;2023-04-15T08:44:26;9.95;;;3.53;;
71038;SDS011;58692;43.212;27.908;2023-04-15T08:46:55;10.68;;;4.03;;
71038;SDS011;58692;43.212;27.908;2023-04-15T08:49:21;10.87;;;4.13;;
71038;SDS011;58692;43.212;27.908;2023-04-15T08:51:51;8.73;;;4.15;;
71038;SDS011;58692;43.212;27.908;2023-04-15T08:54:17;7.78;;;3.30;;
71038;SDS011;58692;43.212;27.908;2023-04-15T08:56:42;8.52;;;3.08;;
71038;SDS011;58692;43.212;27.908;2023-04-15T08:59:08;10.27;;;3.50;;
71038;SDS011;58692;43.212;27.908;2023-04-15T09:01:36;10.00;;;3.95;;
71038;SDS011;58692;43.212;27.908;2023-04-15T09:04:02;11.50;;;3.90;;
71038;SDS011;58692;43.212;27.908;2023-04-15T09:06:28;12.30;;;4.47;;
71038;SDS011;58692;43.212;27.908;2023-04-15T09:08:53;12.50;;;4.27;;
71038;SDS011;58692;43.212;27.908;2023-04-15T09:11:20;9.03;;;3.63;;
71038;SDS011;58692;43.212;27.908;2023-04-15T09:13:46;10.20;;;3.53;;
71038;SDS011;58692;43.212;27.908;2023-04-15T09:16:12;10.73;;;3.67;;
71038;SDS011;58692;43.212;27.908;2023-04-15T09:18:38;13.37;;;3.97;;
71038;SDS011;58692;43.212;27.908;2023-04-15T09:23:33;8.63;;;2.67;;
71038;SDS011;58692;43.212;27.908;2023-04-15T09:26:00;10.90;;;3.30;;
71038;SDS011;58692;43.212;27.908;2023-04-15T09:28:27;8.98;;;3.30;;
71038;SDS011;58692;43.212;27.908;2023-04-15T09:30:56;9.68;;;2.70;;
71038;SDS011;58692;43.212;27.908;2023-04-15T09:33:23;8.32;;;2.80;;
71038;SDS011;58692;43.212;27.908;2023-04-15T09:38:31;7.80;;;2.80;;
71038;SDS011;58692;43.212;27.908;2023-04-15T09:40:57;7.55;;;2.80;;
71038;SDS011;58692;43.212;27.908;2023-04-15T09:46:04;9.23;;;3.00;;
71038;SDS011;58692;43.212;27.908;2023-04-15T09:48:30;7.07;;;2.90;;
71038;SDS011;58692;43.212;27.908;2023-04-15T09:50:57;9.88;;;2.47;;
71038;SDS011;58692;43.212;27.908;2023-04-15T09:53:24;6.78;;;2.47;;
71038;SDS011;58692;43.212;27.908;2023-04-15T09:58:18;7.35;;;2.50;;
71038;SDS011;58692;43.212;27.908;2023-04-15T10:00:48;4.47;;;1.98;;
71038;SDS011;58692;43.212;27.908;2023-04-15T10:03:18;6.78;;;2.40;;
71038;SDS011;58692;43.212;27.908;2023-04-15T10:05:48;5.88;;;2.05;;
71038;SDS011;58692;43.212;27.908;2023-04-15T10:08:16;7.00;;;2.43;;
71038;SDS011;58692;43.212;27.908;2023-04-15T10:10:44;7.63;;;2.30;;
71038;SDS011;58692;43.212;27.908;2023-04-15T10:13:12;6.20;;;2.33;;
71038;SDS011;58692;43.212;27.908;2023-04-15T10:15:38;7.43;;;2.30;;
71038;SDS011;58692;43.212;27.908;2023-04-15T10:18:07;7.78;;;2.50;;
71038;SDS011;58692;43.212;27.908;2023-04-15T10:20:35;6.60;;;2.30;;
71038;SDS011;58692;43.212;27.908;2023-04-15T10:23:01;7.03;;;2.30;;
71038;SDS011;58692;43.212;27.908;2023-04-15T10:25:28;7.25;;;2.17;;
71038;SDS011;58692;43.212;27.908;2023-04-15T10:27:54;6.80;;;2.35;;
71038;SDS011;58692;43.212;27.908;2023-04-15T10:30:21;5.28;;;2.10;;
71038;SDS011;58692;43.212;27.908;2023-04-15T10:32:47;8.90;;;2.27;;
71038;SDS011;58692;43.212;27.908;2023-04-15T10:35:14;9.27;;;3.28;;
71038;SDS011;58692;43.212;27.908;2023-04-15T10:37:40;6.88;;;2.28;;
71038;SDS011;58692;43.212;27.908;2023-04-15T10:42:48;6.28;;;2.42;;
71038;SDS011;58692;43.212;27.908;2023-04-15T10:45:15;6.97;;;2.50;;
71038;SDS011;58692;43.212;27.908;2023-04-15T10:47:42;5.00;;;2.10;;
71038;SDS011;58692;43.212;27.908;2023-04-15T10:50:08;5.53;;;2.17;;
71038;SDS011;58692;43.212;27.908;2023-04-15T10:52:33;7.90;;;2.60;;
71038;SDS011;58692;43.212;27.908;2023-04-15T10:55:01;6.65;;;2.80;;
71038;SDS011;58692;43.212;27.908;2023-04-15T10:57:27;6.45;;;2.30;;
71038;SDS011;58692;43.212;27.908;2023-04-15T11:00:02;7.20;;;2.50;;
71038;SDS011;58692;43.212;27.908;2023-04-15T11:05:18;6.05;;;2.35;;
71038;SDS011;58692;43.212;27.908;2023-04-15T11:12:37;7.63;;;2.53;;
71038;SDS011;58692;43.212;27.908;2023-04-15T11:17:58;7.18;;;2.17;;
71038;SDS011;58692;43.212;27.908;2023-04-15T11:20:40;6.63;;;2.30;;
71038;SDS011;58692;43.212;27.908;2023-04-15T11:23:09;5.40;;;2.20;;
71038;SDS011;58692;43.212;27.908;2023-04-15T11:25:35;6.25;;;2.30;;
71038;SDS011;58692;43.212;27.908;2023-04-15T11:28:02;6.60;;;2.17;;
71038;SDS011;58692;43.212;27.908;2023-04-15T11:30:29;6.78;;;2.20;;
71038;SDS011;58692;43.212;27.908;2023-04-15T11:32:58;9.57;;;2.60;;
71038;SDS011;58692;43.212;27.908;2023-04-15T11:35:26;6.60;;;2.55;;
71038;SDS011;58692;43.212;27.908;2023-04-15T11:37:52;8.48;;;2.72;;
71038;SDS011;58692;43.212;27.908;2023-04-15T11:40:23;7.90;;;2.53;;
71038;SDS011;58692;43.212;27.908;2023-04-15T11:45:33;8.07;;;2.47;;
71038;SDS011;58692;43.212;27.908;2023-04-15T11:50:40;5.10;;;1.95;;
71038;SDS011;58692;43.212;27.908;2023-04-15T11:53:07;6.85;;;2.20;;
71038;SDS011;58692;43.212;27.908;2023-04-15T11:55:42;6.60;;;2.17;;
71038;SDS011;58692;43.212;27.908;2023-04-15T12:00:38;7.05;;;2.58;;
71038;SDS011;58692;43.212;27.908;2023-04-15T12:03:12;6.72;;;2.17;;
71038;SDS011;58692;43.212;27.908;2023-04-15T12:11:31;5.82;;;1.73;;
71038;SDS011;58692;43.212;27.908;2023-04-15T12:21:49;4.37;;;1.80;;
71038;SDS011;58692;43.212;27.908;2023-04-15T12:24:18;5.50;;;1.75;;
71038;SDS011;58692;43.212;27.908;2023-04-15T12:26:47;4.97;;;1.55;;
71038;SDS011;58692;43.212;27.908;2023-04-15T12:29:15;4.22;;;1.50;;
71038;SDS011;58692;43.212;27.908;2023-04-15T12:37:07;3.60;;;1.50;;
71038;SDS011;58692;43.212;27.908;2023-04-15T12:39:34;6.18;;;1.67;;
71038;SDS011;58692;43.212;27.908;2023-04-15T12:42:02;5.63;;;1.90;;
71038;SDS011;58692;43.212;27.908;2023-04-15T12:44:29;5.68;;;1.70;;
71038;SDS011;58692;43.212;27.908;2023-04-15T12:46:55;8.57;;;1.60;;
71038;SDS011;58692;43.212;27.908;2023-04-15T12:49:21;5.43;;;1.70;;
71038;SDS011;58692;43.212;27.908;2023-04-15T12:51:48;4.97;;;1.67;;
71038;SDS011;58692;43.212;27.908;2023-04-15T12:54:15;5.77;;;1.40;;
71038;SDS011;58692;43.212;27.908;2023-04-15T12:56:41;6.20;;;1.75;;
71038;SDS011;58692;43.212;27.908;2023-04-15T12:59:07;6.22;;;1.45;;
71038;SDS011;58692;43.212;27.908;2023-04-15T13:01:32;8.73;;;2.40;;
71038;SDS011;58692;43.212;27.908;2023-04-15T13:03:58;6.95;;;2.33;;
71038;SDS011;58692;43.212;27.908;2023-04-15T13:06:23;6.43;;;2.30;;
71038;SDS011;58692;43.212;27.908;2023-04-15T13:08:49;4.57;;;2.00;;
71038;SDS011;58692;43.212;27.908;2023-04-15T13:11:15;5.03;;;1.90;;
71038;SDS011;58692;43.212;27.908;2023-04-15T13:13:41;6.05;;;2.00;;
71038;SDS011;58692;43.212;27.908;2023-04-15T13:16:07;5.70;;;1.90;;
71038;SDS011;58692;43.212;27.908;2023-04-15T13:18:33;6.75;;;1.80;;
71038;SDS011;58692;43.212;27.908;2023-04-15T13:20:59;6.70;;;2.00;;
71038;SDS011;58692;43.212;27.908;2023-04-15T13:23:27;4.43;;;1.75;;
71038;SDS011;58692;43.212;27.908;2023-04-15T13:25:52;3.97;;;1.50;;
71038;SDS011;58692;43.212;27.908;2023-04-15T13:28:18;4.57;;;1.70;;
71038;SDS011;58692;43.212;27.908;2023-04-15T13:30:43;4.83;;;1.60;;
71038;SDS011;58692;43.212;27.908;2023-04-15T13:33:10;5.07;;;1.60;;
71038;SDS011;58692;43.212;27.908;2023-04-15T13:35:36;4.18;;;1.50;;
71038;SDS011;58692;43.212;27.908;2023-04-15T13:38:02;5.00;;;1.77;;
71038;SDS011;58692;43.212;27.908;2023-04-15T13:40:27;4.40;;;1.60;;
71038;SDS011;58692;43.212;27.908;2023-04-15T13:42:53;7.63;;;2.03;;
71038;SDS011;58692;43.212;27.908;2023-04-15T13:45:18;5.83;;;1.83;;
71038;SDS011;58692;43.212;27.908;2023-04-15T13:47:44;6.85;;;2.00;;
71038;SDS011;58692;43.212;27.908;2023-04-15T13:50:09;6.23;;;1.63;;
71038;SDS011;58692;43.212;27.908;2023-04-15T13:52:35;8.77;;;2.08;;
71038;SDS011;58692;43.212;27.908;2023-04-15T13:55:01;5.63;;;1.77;;
71038;SDS011;58692;43.212;27.908;2023-04-15T13:57:27;8.93;;;2.17;;
71038;SDS011;58692;43.212;27.908;2023-04-15T13:59:53;5.63;;;1.70;;
71038;SDS011;58692;43.212;27.908;2023-04-15T14:02:19;5.50;;;2.00;;
71038;SDS011;58692;43.212;27.908;2023-04-15T14:04:45;8.80;;;2.15;;
71038;SDS011;58692;43.212;27.908;2023-04-15T14:07:11;5.30;;;2.00;;
71038;SDS011;58692;43.212;27.908;2023-04-15T14:09:36;6.13;;;2.17;;
71038;SDS011;58692;43.212;27.908;2023-04-15T14:12:02;6.03;;;1.63;;
71038;SDS011;58692;43.212;27.908;2023-04-15T14:14:28;8.15;;;2.10;;
71038;SDS011;58692;43.212;27.908;2023-04-15T14:16:54;4.70;;;1.80;;
71038;SDS011;58692;43.212;27.908;2023-04-15T14:19:20;6.90;;;1.80;;
71038;SDS011;58692;43.212;27.908;2023-04-15T14:21:46;5.07;;;1.98;;
71038;SDS011;58692;43.212;27.908;2023-04-15T14:24:11;6.40;;;1.70;;
71038;SDS011;58692;43.212;27.908;2023-04-15T14:26:37;6.00;;;1.80;;
71038;SDS011;58692;43.212;27.908;2023-04-15T14:29:02;7.75;;;2.00;;
71038;SDS011;58692;43.212;27.908;2023-04-15T14:31:28;8.03;;;1.97;;
71038;SDS011;58692;43.212;27.908;2023-04-15T14:33:53;7.85;;;2.10;;
71038;SDS011;58692;43.212;27.908;2023-04-15T14:36:19;7.13;;;1.90;;
71038;SDS011;58692;43.212;27.908;2023-04-15T14:38:45;12.57;;;2.50;;
71038;SDS011;58692;43.212;27.908;2023-04-15T14:41:10;4.93;;;2.30;;
71038;SDS011;58692;43.212;27.908;2023-04-15T14:43:36;7.63;;;2.27;;
71038;SDS011;58692;43.212;27.908;2023-04-15T14:46:01;6.75;;;2.40;;
71038;SDS011;58692;43.212;27.908;2023-04-15T14:48:27;7.40;;;2.40;;
71038;SDS011;58692;43.212;27.908;2023-04-15T14:50:52;10.57;;;2.73;;
71038;SDS011;58692;43.212;27.908;2023-04-15T14:53:18;9.45;;;2.67;;
71038;SDS011;58692;43.212;27.908;2023-04-15T14:55:44;7.10;;;3.00;;
71038;SDS011;58692;43.212;27.908;2023-04-15T14:58:10;10.27;;;3.13;;
71038;SDS011;58692;43.212;27.908;2023-04-15T15:00:36;7.78;;;3.42;;
71038;SDS011;58692;43.212;27.908;2023-04-15T15:03:06;11.87;;;3.40;;
71038;SDS011;58692;43.212;27.908;2023-04-15T15:05:40;7.15;;;3.25;;
71038;SDS011;58692;43.212;27.908;2023-04-15T15:08:07;11.07;;;3.60;;
71038;SDS011;58692;43.212;27.908;2023-04-15T15:10:33;12.73;;;3.92;;